Time;durP1;ratioP1;P1;durP2;ratioP2;P2;SDS_P1;SDS_P2;PMS_P1;PMS_P2;Temp;Humidity;BMP_temperature;BMP_pressure;BME280_temperature;BME280_humidity;BME280_pressure;Samples;Min_cycle;Max_cycle;Signal;HPM_P1;HPM_P2
2023/01/27 00:01:10;;;;;;;0.40;0.40;;;;;;;5.64;100.00;94420.97;5092120;28;20420;-58
2023/01/27 00:03:38;;;;;;;0.50;0.30;;;;;;;5.45;100.00;94428.53;5092414;28;20443;-58
2023/01/27 00:06:10;;;;;;;1.53;1.43;;;;;;;5.62;100.00;94391.50;5092228;28;20432;-58
2023/01/27 00:08:39;;;;;;;4.00;1.80;;;;;;;5.87;100.00;94420.50;5071912;28;20525;-57
2023/01/27 00:13:55;;;;;;;1.53;1.43;;;;;;;4.91;100.00;94433.31;5071872;28;20520;-57
2023/01/27 00:16:23;;;;;;;4.50;2.50;;;;;;;4.62;100.00;94431.31;5072153;28;20429;-58
2023/01/27 00:18:52;;;;;;;1.90;0.60;;;;;;;4.98;100.00;94433.88;5071263;28;20426;-58
2023/01/27 00:26:52;;;;;;;0.93;0.93;;;;;;;4.61;100.00;94435.78;5071890;28;20477;-59
2023/01/27 00:29:22;;;;;;;0.60;0.60;;;;;;;4.60;100.00;94431.59;5071858;28;20458;-59
2023/01/27 00:34:38;;;;;;;0.57;0.57;;;;;;;4.95;100.00;94437.03;5071050;28;20499;-59
2023/01/27 00:37:06;;;;;;;1.17;0.63;;;;;;;4.65;100.00;94436.88;5071173;28;20473;-60
2023/01/27 00:39:35;;;;;;;2.20;2.10;;;;;;;4.55;100.00;94436.00;5071426;28;20557;-59
2023/01/27 00:42:04;;;;;;;0.70;0.70;;;;;;;4.85;100.00;94438.81;5071623;28;20424;-59
2023/01/27 00:44:34;;;;;;;1.80;1.70;;;;;;;4.64;100.00;94380.16;5071867;28;20508;-59
2023/01/27 00:47:02;;;;;;;0.30;0.20;;;;;;;5.10;100.00;94438.94;5071633;28;20458;-59
2023/01/27 00:49:30;;;;;;;0.40;0.40;;;;;;;5.12;100.00;94432.38;5071693;28;20460;-59
2023/01/27 00:51:59;;;;;;;0.70;0.70;;;;;;;5.03;100.00;94439.16;5071654;28;20417;-59
2023/01/27 00:54:27;;;;;;;1.00;0.57;;;;;;;5.25;100.00;94419.81;5071596;28;20445;-59
2023/01/27 00:56:55;;;;;;;1.33;1.33;;;;;;;5.33;100.00;94409.59;5070946;28;20430;-59
2023/01/27 00:59:23;;;;;;;0.60;0.60;;;;;;;5.29;100.00;94403.25;5070398;28;20517;-59
2023/01/27 01:01:53;;;;;;;5.53;0.97;;;;;;;5.14;100.00;94406.63;5070895;28;20522;-59
2023/01/27 01:04:22;;;;;;;0.63;0.50;;;;;;;5.24;100.00;94407.75;5071384;28;20429;-60
2023/01/27 01:06:50;;;;;;;0.83;0.83;;;;;;;5.30;100.00;94393.56;5071603;28;20448;-59
2023/01/27 01:09:18;;;;;;;1.63;1.63;;;;;;;5.49;100.00;94377.03;5071262;28;20467;-59
2023/01/27 01:11:46;;;;;;;2.00;0.63;;;;;;;5.42;100.00;94380.97;5071292;28;20442;-59
2023/01/27 01:14:15;;;;;;;0.50;0.50;;;;;;;5.51;100.00;94374.97;5071389;28;20481;-59
2023/01/27 01:16:43;;;;;;;0.60;0.30;;;;;;;5.52;100.00;94365.22;5071764;28;20832;-59
2023/01/27 01:19:13;;;;;;;0.30;0.30;;;;;;;5.39;100.00;94398.03;5071285;28;20914;-58
2023/01/27 01:21:41;;;;;;;1.17;1.17;;;;;;;5.21;100.00;94401.16;5071152;28;20425;-58
2023/01/27 01:24:09;;;;;;;0.50;0.50;;;;;;;5.27;100.00;94397.47;5071110;28;20507;-58
2023/01/27 01:26:37;;;;;;;2.23;1.57;;;;;;;5.12;100.00;94392.19;5071123;28;20472;-59
2023/01/27 01:29:06;;;;;;;0.60;0.60;;;;;;;5.06;100.00;94383.50;5071847;28;20516;-59
2023/01/27 01:31:34;;;;;;;1.33;1.33;;;;;;;5.47;100.00;94392.28;5075442;28;20428;-59
2023/01/27 01:34:02;;;;;;;0.70;0.70;;;;;;;5.47;100.00;94402.78;5074965;28;20494;-59
2023/01/27 01:36:32;;;;;;;0.70;0.70;;;;;;;5.44;100.00;94397.28;5074866;28;20476;-59
2023/01/27 01:39:01;;;;;;;1.60;1.60;;;;;;;5.22;100.00;94380.91;5074821;28;20429;-58
2023/01/27 01:41:29;;;;;;;0.87;0.87;;;;;;;5.49;100.00;94379.66;5074688;28;20491;-59
2023/01/27 01:43:57;;;;;;;0.83;0.83;;;;;;;5.37;100.00;94338.91;5074917;28;20486;-59
2023/01/27 01:46:26;;;;;;;0.70;0.70;;;;;;;5.66;100.00;94364.47;5075027;28;20436;-59
2023/01/27 01:48:58;;;;;;;1.07;1.07;;;;;;;5.60;100.00;94367.34;5074537;28;20429;-59
2023/01/27 01:51:31;;;;;;;1.10;0.90;;;;;;;5.52;100.00;94373.09;5074596;28;21008;-59
2023/01/27 01:54:04;;;;;;;0.77;0.70;;;;;;;5.45;100.00;94365.47;5074839;28;20422;-59
2023/01/27 01:56:37;;;;;;;2.70;1.73;;;;;;;4.62;100.00;94363.88;5074533;28;20434;-59
2023/01/27 01:59:11;;;;;;;3.50;1.17;;;;;;;4.33;100.00;94367.91;5074475;28;20497;-59
2023/01/27 02:01:40;;;;;;;1.30;1.30;;;;;;;4.22;100.00;94369.69;5074374;28;20975;-59
2023/01/27 02:04:12;;;;;;;8.77;1.17;;;;;;;4.33;100.00;94358.22;5074246;28;20429;-60
2023/01/27 02:06:45;;;;;;;1.77;1.77;;;;;;;4.16;100.00;94351.53;5074603;28;20486;-60
2023/01/27 02:09:15;;;;;;;1.93;1.83;;;;;;;4.16;100.00;94291.25;5074231;28;20577;-59
2023/01/27 02:11:44;;;;;;;3.73;1.00;;;;;;;4.65;100.00;94344.22;5074233;28;20449;-60
2023/01/27 02:14:14;;;;;;;1.53;1.50;;;;;;;4.72;100.00;94360.53;5073431;28;20440;-60
2023/01/27 02:16:44;;;;;;;1.10;0.97;;;;;;;4.82;100.00;94350.84;5074273;28;20453;-60
2023/01/27 02:19:21;;;;;;;1.37;1.27;;;;;;;4.73;100.00;94336.63;5074170;28;20428;-60
2023/01/27 02:21:52;;;;;;;1.30;1.30;;;;;;;4.88;100.00;94313.06;5074387;28;20468;-60
2023/01/27 02:24:24;;;;;;;3.53;1.03;;;;;;;4.70;100.00;94310.91;5074056;28;20430;-60
2023/01/27 02:26:53;;;;;;;0.40;0.30;;;;;;;4.83;100.00;94307.78;5074393;28;20508;-60
2023/01/27 02:29:22;;;;;;;6.00;1.33;;;;;;;4.57;100.00;94293.03;5073949;28;20472;-60
2023/01/27 02:31:50;;;;;;;0.50;0.50;;;;;;;4.68;100.00;94312.22;5074046;28;20437;-60
2023/01/27 02:34:23;;;;;;;1.57;0.30;;;;;;;4.76;100.00;94301.19;5074051;28;20440;-60
2023/01/27 02:36:55;;;;;;;1.03;1.03;;;;;;;4.66;100.00;94270.47;5074055;28;20949;-60
2023/01/27 02:39:29;;;;;;;0.50;0.50;;;;;;;4.81;100.00;94291.50;5073870;28;20429;-58
2023/01/27 02:42:00;;;;;;;1.07;1.07;;;;;;;4.65;100.00;94292.53;5072908;28;20477;-58
2023/01/27 02:44:29;;;;;;;1.93;1.83;;;;;;;4.85;100.00;94265.56;5074015;28;20508;-58
2023/01/27 02:46:57;;;;;;;1.03;1.03;;;;;;;3.43;100.00;94059.75;5073636;28;20444;-59
2023/01/27 02:49:25;;;;;;;1.20;1.20;;;;;;;4.57;100.00;94256.28;5073043;28;20421;-58
2023/01/27 02:51:54;;;;;;;0.40;0.30;;;;;;;4.39;100.00;94264.59;5073315;28;20524;-60
2023/01/27 02:54:23;;;;;;;0.57;0.57;;;;;;;4.55;100.00;94263.63;5073606;28;20429;-59
2023/01/27 02:56:51;;;;;;;2.93;2.17;;;;;;;4.22;100.00;94264.81;5073345;28;20522;-59
2023/01/27 02:59:21;;;;;;;5.67;1.30;;;;;;;4.03;100.00;94270.72;5072973;28;20426;-59
2023/01/27 03:01:50;;;;;;;1.20;1.20;;;;;;;4.04;100.00;94264.44;5072861;28;20473;-59
2023/01/27 03:04:18;;;;;;;0.40;0.40;;;;;;;4.23;100.00;94262.94;5073367;28;20421;-59
2023/01/27 03:06:46;;;;;;;2.77;0.90;;;;;;;4.42;100.00;94264.09;5073245;28;20429;-59
2023/01/27 03:09:15;;;;;;;1.07;1.07;;;;;;;4.34;100.00;94264.59;5073244;28;20464;-59
2023/01/27 03:20:01;;;;;;;0.83;0.83;;;;;;;4.47;100.00;94258.88;5072861;28;20441;-59
2023/01/27 03:22:30;;;;;;;1.53;1.43;;;;;;;4.41;100.00;94265.94;5072883;28;20560;-59
2023/01/27 03:24:58;;;;;;;1.97;1.87;;;;;;;4.56;100.00;94267.03;5072799;28;20433;-59
2023/01/27 03:27:26;;;;;;;0.70;0.70;;;;;;;4.35;100.00;94276.66;5072865;28;20926;-60
2023/01/27 03:29:56;;;;;;;1.07;1.07;;;;;;;4.50;100.00;94266.25;5072745;28;20429;-60
2023/01/27 03:32:26;;;;;;;0.97;0.97;;;;;;;4.66;100.00;94270.47;5072837;28;20468;-60
2023/01/27 03:34:56;;;;;;;0.70;0.60;;;;;;;4.57;100.00;94269.41;5072545;28;20559;-60
2023/01/27 03:48:35;;;;;;;7.40;2.30;;;;;;;3.73;100.00;94300.94;5072412;28;20433;-59
2023/01/27 03:51:06;;;;;;;5.33;1.00;;;;;;;3.64;100.00;94306.91;5071802;28;20444;-60
2023/01/27 03:53:34;;;;;;;5.03;2.03;;;;;;;3.60;100.00;94309.22;5071545;28;20508;-60
2023/01/27 03:56:03;;;;;;;3.80;3.50;;;;;;;3.54;100.00;94306.81;5072255;28;20493;-59
2023/01/27 03:58:33;;;;;;;0.50;0.47;;;;;;;3.85;100.00;94305.97;5072558;28;20452;-59
2023/01/27 04:01:05;;;;;;;1.03;1.03;;;;;;;4.20;100.00;94302.81;5071926;28;21038;-60
2023/01/27 04:09:10;;;;;;;1.40;0.90;;;;;;;3.99;100.00;94293.25;5072093;28;20967;-60
2023/01/27 04:11:57;;;;;;;2.27;1.70;;;;;;;3.97;100.00;94314.47;5072117;28;20511;-60
2023/01/27 04:14:28;;;;;;;0.43;0.40;;;;;;;3.81;100.00;94313.59;5071888;28;20440;-60
2023/01/27 04:17:00;;;;;;;1.40;1.40;;;;;;;3.54;100.00;94312.06;5072364;28;20524;-60
2023/01/27 04:19:29;;;;;;;0.80;0.80;;;;;;;3.43;100.00;94311.19;5072203;28;20462;-60
2023/01/27 04:21:58;;;;;;;2.73;2.63;;;;;;;3.22;100.00;94294.50;5072147;28;20818;-60
2023/01/27 04:24:26;;;;;;;11.27;1.03;;;;;;;3.32;100.00;94314.75;5071626;28;20456;-59
2023/01/27 04:26:57;;;;;;;1.00;0.93;;;;;;;3.76;100.00;94329.28;5071051;28;20494;-60
2023/01/27 04:29:27;;;;;;;2.23;2.13;;;;;;;3.72;100.00;94256.63;5071299;28;20526;-60
2023/01/27 04:31:58;;;;;;;2.63;2.43;;;;;;;4.19;100.00;94291.53;5071350;28;20494;-60
2023/01/27 04:34:28;;;;;;;0.90;0.70;;;;;;;4.25;100.00;94308.84;5070921;28;20494;-59
2023/01/27 04:36:56;;;;;;;0.87;0.87;;;;;;;4.08;100.00;94255.00;5071244;28;20527;-60
2023/01/27 04:39:25;;;;;;;0.70;0.60;;;;;;;4.69;100.00;94325.06;5071772;28;20468;-59
2023/01/27 04:41:53;;;;;;;3.30;1.50;;;;;;;4.79;100.00;94314.63;5071546;28;20490;-60
2023/01/27 04:44:22;;;;;;;0.83;0.83;;;;;;;4.47;100.00;94309.50;5071917;28;20463;-60
2023/01/27 04:46:50;;;;;;;0.80;0.80;;;;;;;4.60;100.00;94323.22;5071510;28;20433;-59
2023/01/27 04:49:21;;;;;;;0.90;0.90;;;;;;;4.52;100.00;94308.75;5071688;28;20453;-59
2023/01/27 04:51:49;;;;;;;0.53;0.53;;;;;;;4.46;100.00;94300.06;5071844;28;20433;-60
2023/01/27 04:54:17;;;;;;;0.73;0.73;;;;;;;4.75;100.00;94312.78;5071578;28;20466;-60
2023/01/27 04:56:56;;;;;;;0.70;0.70;;;;;;;4.90;100.00;94305.75;5071589;28;20487;-59
2023/01/27 04:59:27;;;;;;;5.13;0.80;;;;;;;4.87;100.00;94306.25;5072071;28;20436;-60
2023/01/27 05:01:55;;;;;;;0.70;0.67;;;;;;;4.52;100.00;94308.75;5071373;28;20519;-59
2023/01/27 05:04:26;;;;;;;0.80;0.80;;;;;;;4.62;100.00;94319.28;5072769;28;20428;-59
2023/01/27 05:06:54;;;;;;;2.90;1.93;;;;;;;4.59;100.00;94314.53;5075507;28;20442;-59
2023/01/27 05:09:23;;;;;;;1.07;0.90;;;;;;;4.94;100.00;94319.91;5075409;28;20929;-59
2023/01/27 05:11:51;;;;;;;1.07;1.07;;;;;;;5.12;100.00;94319.44;5075394;28;20425;-58
2023/01/27 05:14:22;;;;;;;3.00;0.50;;;;;;;4.68;100.00;94322.72;5075791;28;20416;-59
2023/01/27 05:16:50;;;;;;;0.80;0.80;;;;;;;5.11;100.00;94323.09;5075443;28;20433;-59
2023/01/27 05:19:19;;;;;;;0.83;0.83;;;;;;;5.29;100.00;94311.31;5075308;28;20462;-58
2023/01/27 05:21:49;;;;;;;0.53;0.53;;;;;;;5.23;100.00;94322.88;5074995;28;20515;-59
2023/01/27 05:24:17;;;;;;;0.83;0.83;;;;;;;5.20;100.00;94306.84;5075133;28;20539;-58
2023/01/27 05:26:45;;;;;;;1.57;1.57;;;;;;;5.43;100.00;94314.25;5075288;28;20432;-58
2023/01/27 05:29:14;;;;;;;5.70;2.40;;;;;;;5.36;100.00;94313.72;5074815;28;20429;-59
2023/01/27 05:31:42;;;;;;;1.87;1.77;;;;;;;5.37;100.00;94300.31;5074376;28;20941;-59
2023/01/27 05:34:10;;;;;;;5.97;1.90;;;;;;;5.41;100.00;94298.75;5074930;28;20497;-58
2023/01/27 05:36:39;;;;;;;2.03;1.93;;;;;;;5.44;100.00;94311.34;5074322;28;21023;-60
2023/01/27 05:39:11;;;;;;;2.83;2.03;;;;;;;5.52;100.00;94317.91;5074318;28;20425;-59
2023/01/27 05:41:39;;;;;;;1.50;1.50;;;;;;;5.26;100.00;94309.25;5073854;28;20455;-58
2023/01/27 05:44:10;;;;;;;1.70;1.60;;;;;;;5.38;100.00;94291.38;5073312;28;20508;-59
2023/01/27 05:46:39;;;;;;;1.07;1.07;;;;;;;5.27;100.00;94313.44;5074540;28;20432;-58
2023/01/27 05:49:08;;;;;;;0.50;0.50;;;;;;;5.06;100.00;94294.22;5074394;28;20490;-59
2023/01/27 05:51:39;;;;;;;3.40;0.70;;;;;;;4.75;100.00;94278.66;5074172;28;20456;-59
2023/01/27 05:54:12;;;;;;;1.13;0.60;;;;;;;5.29;100.00;94337.59;5074506;28;20512;-59
2023/01/27 05:56:40;;;;;;;0.43;0.43;;;;;;;4.98;100.00;94349.09;5074733;28;20806;-59
2023/01/27 05:59:11;;;;;;;4.63;2.53;;;;;;;5.05;100.00;94355.66;5085214;28;20526;-59
2023/01/27 06:01:39;;;;;;;0.87;0.87;;;;;;;4.93;100.00;94360.34;5094137;28;20459;-59
2023/01/27 06:04:08;;;;;;;2.77;1.57;;;;;;;4.79;100.00;94355.81;5094528;28;20489;-59
2023/01/27 06:06:36;;;;;;;0.60;0.60;;;;;;;5.09;100.00;94335.72;5095109;28;20446;-59
2023/01/27 06:09:04;;;;;;;1.13;0.97;;;;;;;5.23;100.00;94335.22;5099605;28;20433;-59
2023/01/27 06:11:34;;;;;;;2.43;2.33;;;;;;;5.16;100.00;94329.44;5094916;28;20434;-59
2023/01/27 06:14:02;;;;;;;8.43;2.83;;;;;;;4.67;100.00;94337.66;5094554;28;20443;-59
2023/01/27 06:16:30;;;;;;;2.50;1.27;;;;;;;4.83;100.00;94333.28;5093683;28;20796;-59
2023/01/27 06:18:59;;;;;;;0.50;0.50;;;;;;;4.97;100.00;94324.66;5094633;28;20433;-60
2023/01/27 06:21:27;;;;;;;2.17;1.63;;;;;;;5.06;100.00;94322.28;5094544;28;20840;-59
2023/01/27 06:23:56;;;;;;;0.97;0.97;;;;;;;5.10;100.00;94326.78;5093992;28;20515;-59
2023/01/27 06:26:25;;;;;;;0.70;0.70;;;;;;;5.09;100.00;94325.22;5094764;28;20573;-59
2023/01/27 06:28:56;;;;;;;11.53;2.30;;;;;;;5.22;100.00;94328.38;5094332;28;20428;-59
2023/01/27 06:31:24;;;;;;;1.27;1.17;;;;;;;5.38;100.00;94330.78;5093412;28;20421;-59
2023/01/27 06:33:53;;;;;;;2.03;1.47;;;;;;;5.42;100.00;94313.44;5094442;28;20801;-59
2023/01/27 06:36:22;;;;;;;2.47;2.30;;;;;;;5.45;100.00;94318.19;5094190;28;20472;-59
2023/01/27 06:38:51;;;;;;;0.73;0.73;;;;;;;5.52;100.00;94313.47;5093529;28;20518;-59
2023/01/27 06:41:19;;;;;;;1.60;1.60;;;;;;;5.06;100.00;94225.13;5092778;28;20439;-59
2023/01/27 06:43:47;;;;;;;2.73;2.57;;;;;;;5.06;100.00;94303.91;5093858;28;20519;-59
2023/01/27 06:46:17;;;;;;;2.43;2.33;;;;;;;4.84;100.00;94298.88;5093929;28;20979;-59
2023/01/27 06:48:45;;;;;;;3.40;2.67;;;;;;;4.66;100.00;94293.28;5093827;28;20945;-59
2023/01/27 06:51:14;;;;;;;4.90;4.50;;;;;;;4.88;100.00;94286.03;5093149;28;20428;-59
2023/01/27 06:53:42;;;;;;;3.47;1.83;;;;;;;4.54;100.00;94269.91;5093317;28;20999;-59
2023/01/27 06:56:10;;;;;;;2.67;1.37;;;;;;;4.46;100.00;94223.97;5093017;28;20482;-59
2023/01/27 06:58:39;;;;;;;5.17;4.77;;;;;;;4.46;100.00;94312.38;5093596;28;20909;-59
2023/01/27 07:01:07;;;;;;;2.87;2.67;;;;;;;4.16;100.00;94314.84;5093762;28;20787;-58
2023/01/27 07:03:37;;;;;;;4.33;2.00;;;;;;;4.10;100.00;94329.75;5093565;28;20496;-59
2023/01/27 07:06:06;;;;;;;5.00;2.50;;;;;;;4.47;100.00;94332.31;5093996;28;20527;-59
2023/01/27 07:08:34;;;;;;;12.80;5.17;;;;;;;4.22;100.00;94326.94;5093440;28;20413;-59
2023/01/27 07:11:04;;;;;;;12.57;3.53;;;;;;;3.78;100.00;94331.63;5093472;28;20531;-59
2023/01/27 07:13:32;;;;;;;3.33;3.13;;;;;;;3.84;100.00;94328.00;5092947;28;20468;-59
2023/01/27 07:16:01;;;;;;;2.97;2.67;;;;;;;4.43;100.00;94326.78;5092385;28;21027;-60
2023/01/27 07:18:32;;;;;;;3.80;1.50;;;;;;;4.73;100.00;94317.50;5093030;28;20436;-59
2023/01/27 07:21:06;;;;;;;5.43;2.23;;;;;;;4.55;100.00;94254.97;5093435;28;20440;-59
2023/01/27 07:23:35;;;;;;;1.60;1.60;;;;;;;5.29;100.00;94303.44;5093318;28;20543;-59
2023/01/27 07:26:03;;;;;;;0.77;0.77;;;;;;;4.90;100.00;94291.81;5092931;28;20467;-59
2023/01/27 07:28:42;;;;;;;2.37;1.70;;;;;;;4.78;100.00;94293.88;5093095;28;20509;-59
2023/01/27 07:31:11;;;;;;;3.33;3.00;;;;;;;4.94;100.00;94295.50;5093229;28;20433;-59
2023/01/27 07:33:39;;;;;;;1.50;1.40;;;;;;;5.26;100.00;94300.56;5093382;28;20433;-59
2023/01/27 07:36:09;;;;;;;9.83;2.47;;;;;;;5.48;100.00;94295.84;5093124;28;20845;-59
2023/01/27 07:38:38;;;;;;;4.10;3.50;;;;;;;4.92;100.00;94255.59;5093004;28;20462;-59
2023/01/27 07:41:07;;;;;;;1.27;1.23;;;;;;;5.35;100.00;94304.25;5092961;28;20459;-59
2023/01/27 07:43:36;;;;;;;1.97;1.90;;;;;;;5.51;100.00;94287.44;5093135;28;20557;-59
2023/01/27 07:46:04;;;;;;;1.53;1.43;;;;;;;5.72;100.00;94299.53;5092945;28;20428;-59
2023/01/27 07:48:32;;;;;;;38.07;5.00;;;;;;;4.97;100.00;94292.34;5093124;28;20991;-59
2023/01/27 07:51:01;;;;;;;4.70;3.30;;;;;;;4.60;100.00;94312.72;5092688;28;20487;-59
2023/01/27 07:53:30;;;;;;;7.67;2.80;;;;;;;4.65;100.00;94318.78;5093061;28;20418;-59
2023/01/27 07:56:00;;;;;;;2.63;2.23;;;;;;;4.94;100.00;94321.75;5092461;28;20462;-59
2023/01/27 07:58:28;;;;;;;6.90;2.33;;;;;;;4.89;100.00;94321.72;5092659;28;20582;-59
2023/01/27 08:00:56;;;;;;;1.47;1.47;;;;;;;4.88;100.00;94318.31;5092844;28;20436;-59
2023/01/27 08:03:28;;;;;;;1.93;1.83;;;;;;;4.96;100.00;94286.31;5092771;28;20467;-60
2023/01/27 08:05:56;;;;;;;0.53;0.53;;;;;;;5.14;100.00;94306.84;5092722;28;20436;-60
2023/01/27 08:08:25;;;;;;;1.70;1.60;;;;;;;5.36;100.00;94292.69;5092838;28;20453;-59
2023/01/27 08:10:54;;;;;;;1.13;1.10;;;;;;;5.54;100.00;94303.47;5092145;28;20522;-60
2023/01/27 08:13:23;;;;;;;3.53;2.60;;;;;;;5.85;100.00;94299.03;5092773;28;20460;-59
2023/01/27 08:15:56;;;;;;;0.87;0.87;;;;;;;5.94;100.00;94302.72;5092436;28;20916;-60
2023/01/27 08:18:25;;;;;;;3.27;1.63;;;;;;;5.89;100.00;94305.34;5092433;28;20424;-60
2023/01/27 08:20:53;;;;;;;2.13;2.03;;;;;;;5.92;100.00;94301.41;5092504;28;20429;-60
2023/01/27 08:23:22;;;;;;;0.60;0.60;;;;;;;5.90;100.00;94301.66;5092422;28;20525;-60
2023/01/27 08:25:51;;;;;;;3.30;1.33;;;;;;;5.68;100.00;94301.91;5092027;28;21021;-60
2023/01/27 08:28:22;;;;;;;6.33;1.63;;;;;;;5.41;100.00;94297.94;5092389;28;20432;-59
2023/01/27 08:30:51;;;;;;;2.50;2.40;;;;;;;5.16;100.00;94297.91;5092315;28;20425;-60
2023/01/27 08:33:19;;;;;;;2.83;2.63;;;;;;;5.22;100.00;94288.97;5092518;28;20541;-60
2023/01/27 08:35:48;;;;;;;4.60;3.03;;;;;;;5.10;100.00;94300.53;5091873;28;20518;-59
2023/01/27 08:38:18;;;;;;;1.20;1.20;;;;;;;5.12;100.00;94306.31;5091898;28;20454;-59
2023/01/27 08:40:48;;;;;;;1.27;1.17;;;;;;;4.75;100.00;94250.56;5091889;28;20432;-59
2023/01/27 08:43:16;;;;;;;1.10;1.03;;;;;;;5.08;100.00;94293.97;5091845;28;20464;-59
2023/01/27 08:45:46;;;;;;;10.53;2.67;;;;;;;4.96;100.00;94286.31;5091555;28;20524;-59
2023/01/27 08:48:14;;;;;;;1.00;1.00;;;;;;;5.28;100.00;94301.09;5092016;28;20808;-59
2023/01/27 08:50:43;;;;;;;1.20;1.10;;;;;;;5.37;100.00;94308.19;5091872;28;20428;-58
2023/01/27 08:53:11;;;;;;;1.03;1.00;;;;;;;5.16;100.00;94309.22;5091842;28;20475;-59
2023/01/27 08:55:39;;;;;;;2.77;2.67;;;;;;;5.42;100.00;94310.81;5091642;28;20468;-59
2023/01/27 08:58:08;;;;;;;0.43;0.43;;;;;;;5.87;100.00;94307.44;5091943;28;20428;-59
2023/01/27 09:00:38;;;;;;;0.80;0.70;;;;;;;6.28;100.00;94295.81;5091923;28;20452;-59
2023/01/27 09:03:08;;;;;;;0.73;0.73;;;;;;;6.08;100.00;94301.09;5091563;28;20439;-58
2023/01/27 09:05:37;;;;;;;1.07;0.97;;;;;;;6.12;100.00;94282.97;5090895;28;20472;-60
2023/01/27 09:08:06;;;;;;;1.10;1.00;;;;;;;5.44;100.00;94284.31;5091448;28;20457;-60
2023/01/27 09:10:37;;;;;;;1.00;1.00;;;;;;;5.32;100.00;94286.38;5092033;28;20439;-60
2023/01/27 09:13:06;;;;;;;0.73;0.73;;;;;;;5.47;100.00;94247.75;5091258;28;20524;-60
2023/01/27 09:15:37;;;;;;;0.57;0.57;;;;;;;5.43;100.00;94222.28;5091581;28;20425;-61
2023/01/27 09:18:06;;;;;;;3.07;2.87;;;;;;;5.97;100.00;94278.50;5091436;28;20440;-60
2023/01/27 09:20:36;;;;;;;0.70;0.70;;;;;;;6.06;100.00;94226.94;5091376;28;20523;-59
2023/01/27 09:23:05;;;;;;;1.57;0.97;;;;;;;6.71;100.00;94267.22;5091262;28;20422;-58
2023/01/27 09:25:33;;;;;;;2.40;0.50;;;;;;;6.41;100.00;94268.13;5091257;28;20526;-60
2023/01/27 09:28:04;;;;;;;1.60;1.50;;;;;;;6.25;100.00;94259.50;5091194;28;20523;-58
2023/01/27 09:30:32;;;;;;;4.43;1.80;;;;;;;5.73;100.00;94240.66;5091503;28;20498;-59
2023/01/27 09:33:01;;;;;;;0.80;0.80;;;;;;;6.36;100.00;94258.44;5090731;28;20922;-58
2023/01/27 09:35:38;;;;;;;0.70;0.70;;;;;;;6.56;100.00;94254.13;5090360;28;21027;-58
2023/01/27 09:38:08;;;;;;;5.43;0.97;;;;;;;6.60;100.00;94244.66;5091000;28;20428;-58
2023/01/27 09:40:49;;;;;;;1.73;1.07;;;;;;;6.74;100.00;94240.38;5090921;28;20541;-58
2023/01/27 09:43:55;;;;;;;0.80;0.80;;;;;;;7.01;100.00;94231.00;5091087;28;20438;-58
2023/01/27 09:46:43;;;;;;;0.80;0.80;;;;;;;6.97;100.00;94245.78;5090852;28;20468;-58
2023/01/27 09:49:36;;;;;;;0.57;0.57;;;;;;;6.72;100.00;94248.53;5091294;28;20805;-58
2023/01/27 09:52:24;;;;;;;0.87;0.87;;;;;;;6.59;100.00;94251.75;5095159;28;20448;-58
2023/01/27 09:55:15;;;;;;;0.83;0.70;;;;;;;6.68;100.00;94246.72;5094569;28;20477;-58
2023/01/27 09:57:55;;;;;;;0.90;0.90;;;;;;;6.55;100.00;94248.09;5094762;28;20492;-58
2023/01/27 10:00:39;;;;;;;5.13;1.73;;;;;;;6.33;100.00;94243.16;5094594;28;20769;-58
2023/01/27 10:03:32;;;;;;;0.80;0.80;;;;;;;6.46;100.00;94227.84;5094499;28;20774;-58
2023/01/27 10:06:26;;;;;;;3.33;3.03;;;;;;;6.23;100.00;94181.91;5081658;28;20526;-57
2023/01/27 10:09:27;;;;;;;4.50;1.60;;;;;;;6.45;100.00;94248.16;5094582;28;20437;-58
2023/01/27 10:12:03;;;;;;;1.07;1.00;;;;;;;6.53;100.00;94233.63;5094426;28;20435;-59
2023/01/27 10:14:39;;;;;;;0.40;0.30;;;;;;;7.04;100.00;94221.75;5094532;28;20433;-58
2023/01/27 10:17:23;;;;;;;1.43;1.40;;;;;;;6.33;100.00;94153.72;5093885;28;20510;-58
2023/01/27 10:20:05;;;;;;;1.50;1.40;;;;;;;6.90;100.00;94218.16;5094138;28;20460;-58
2023/01/27 10:22:45;;;;;;;0.60;0.50;;;;;;;6.97;100.00;94206.25;5094194;28;20432;-58
2023/01/27 10:25:25;;;;;;;6.20;1.87;;;;;;;7.50;100.00;94209.03;5093741;28;20509;-59
2023/01/27 10:27:57;;;;;;;1.83;1.70;;;;;;;7.55;100.00;94209.00;5093769;28;20802;-58
2023/01/27 10:30:33;;;;;;;1.60;1.60;;;;;;;7.51;100.00;94200.84;5094137;28;20775;-58
2023/01/27 10:33:14;;;;;;;2.13;2.00;;;;;;;7.42;100.00;94143.72;5093993;28;20522;-58
2023/01/27 10:35:50;;;;;;;1.67;1.57;;;;;;;7.67;100.00;94199.66;5093856;28;20474;-58
2023/01/27 10:38:30;;;;;;;1.17;1.17;;;;;;;7.46;100.00;94200.88;5094158;28;20440;-58
2023/01/27 10:41:11;;;;;;;2.87;2.63;;;;;;;6.82;100.00;94193.19;5094101;28;20475;-58
2023/01/27 10:43:52;;;;;;;2.57;2.47;;;;;;;6.70;100.00;94179.59;5093892;28;20812;-58
2023/01/27 10:46:35;;;;;;;3.53;3.33;;;;;;;7.12;100.00;94197.47;5093624;28;20489;-59
2023/01/27 10:49:07;;;;;;;1.43;1.23;;;;;;;7.06;100.00;94195.16;5093654;28;20505;-58
2023/01/27 10:51:39;;;;;;;4.57;3.63;;;;;;;7.07;100.00;94186.16;5093664;28;20462;-60
2023/01/27 10:54:12;;;;;;;2.93;2.83;;;;;;;6.82;100.00;94129.19;5093411;28;20513;-59
2023/01/27 10:56:47;;;;;;;3.13;1.47;;;;;;;7.09;100.00;94184.84;5093147;28;20439;-58
2023/01/27 10:59:22;;;;;;;4.30;4.10;;;;;;;7.17;100.00;94181.63;5093678;28;20430;-58
2023/01/27 11:01:56;;;;;;;3.40;2.57;;;;;;;6.83;100.00;94165.03;5092974;28;20432;-58
2023/01/27 11:04:33;;;;;;;5.90;2.30;;;;;;;6.90;100.00;94181.28;5093189;28;20521;-58
2023/01/27 11:07:01;;;;;;;3.03;2.40;;;;;;;6.98;100.00;94175.44;5092706;28;20799;-57
2023/01/27 11:09:34;;;;;;;1.80;1.70;;;;;;;6.80;100.00;94131.31;5092767;28;20431;-58
2023/01/27 11:12:10;;;;;;;3.60;1.47;;;;;;;7.34;100.00;94170.66;5092072;28;20935;-59
2023/01/27 11:14:45;;;;;;;3.43;3.20;;;;;;;7.78;100.00;94173.19;5092081;28;20497;-59
2023/01/27 11:17:18;;;;;;;2.23;2.13;;;;;;;7.78;100.00;94171.34;5092928;28;20421;-57
2023/01/27 11:19:57;;;;;;;3.17;3.00;;;;;;;7.01;100.00;94178.31;5092445;28;20937;-59
2023/01/27 11:22:33;;;;;;;1.77;1.67;;;;;;;6.61;100.00;94177.75;5092814;28;20775;-58
2023/01/27 11:25:07;;;;;;;2.17;1.70;;;;;;;6.89;100.00;94180.50;5092268;28;20512;-58
2023/01/27 11:27:54;;;;;;;2.73;1.40;;;;;;;7.42;100.00;94170.88;5092454;28;20479;-58
2023/01/27 11:30:28;;;;;;;2.13;2.03;;;;;;;7.23;100.00;94167.34;5092328;28;20438;-57
2023/01/27 11:33:05;;;;;;;15.23;2.40;;;;;;;6.83;100.00;94170.28;5092690;28;20502;-57
2023/01/27 11:35:33;;;;;;;1.93;1.83;;;;;;;7.11;100.00;94166.13;5092589;28;20543;-57
2023/01/27 11:38:02;;;;;;;0.80;0.80;;;;;;;7.73;100.00;94154.75;5092396;28;20429;-58
2023/01/27 11:40:45;;;;;;;1.33;1.13;;;;;;;7.68;100.00;94151.13;5092562;28;20433;-59
2023/01/27 11:43:18;;;;;;;1.73;1.63;;;;;;;7.84;100.00;94153.59;5092106;28;21013;-59
2023/01/27 11:45:52;;;;;;;3.37;1.50;;;;;;;7.76;100.00;94141.81;5092171;28;20479;-59
2023/01/27 11:48:23;;;;;;;3.50;1.73;;;;;;;7.84;100.00;94141.22;5092088;28;20965;-59
2023/01/27 11:50:52;;;;;;;3.60;2.67;;;;;;;8.10;100.00;94126.66;5091120;28;20431;-59
2023/01/27 11:53:26;;;;;;;1.30;1.30;;;;;;;7.79;100.00;94128.09;5092460;28;20903;-59
2023/01/27 11:55:59;;;;;;;1.40;1.40;;;;;;;7.66;100.00;94108.41;5092061;28;20460;-59
2023/01/27 11:58:36;;;;;;;4.20;1.17;;;;;;;8.31;100.00;94129.84;5092064;28;20452;-59
2023/01/27 12:01:14;;;;;;;9.73;1.70;;;;;;;8.08;100.00;94120.09;5092233;28;20948;-59
2023/01/27 12:03:52;;;;;;;3.73;1.30;;;;;;;8.10;100.00;94110.03;5092581;28;20451;-59
2023/01/27 12:06:31;;;;;;;1.43;1.33;;;;;;;8.13;100.00;94125.28;5092154;28;20848;-58
2023/01/27 12:08:59;;;;;;;4.60;2.83;;;;;;;7.77;100.00;94129.44;5092350;28;20850;-58
2023/01/27 12:11:29;;;;;;;6.50;3.80;;;;;;;7.61;100.00;94129.56;5092126;28;20459;-58
2023/01/27 12:14:04;;;;;;;5.80;4.90;;;;;;;6.94;100.00;94133.06;5091052;28;21023;-58
2023/01/27 12:16:43;;;;;;;3.40;2.37;;;;;;;6.77;100.00;94132.66;5092062;28;20794;-57
2023/01/27 12:19:24;;;;;;;4.27;4.13;;;;;;;7.28;100.00;94132.25;5090982;28;20423;-57
2023/01/27 12:21:57;;;;;;;6.50;3.37;;;;;;;6.79;100.00;94082.34;5090970;28;20430;-58
2023/01/27 12:24:31;;;;;;;5.13;1.70;;;;;;;7.59;100.00;94129.06;5091745;28;20439;-57
2023/01/27 12:27:01;;;;;;;1.87;1.77;;;;;;;6.78;100.00;94007.06;5091800;28;20486;-57
2023/01/27 12:29:40;;;;;;;1.07;1.07;;;;;;;8.00;100.00;94113.56;5091739;28;20421;-57